createdAt,value
2018-04-17T00:00:45.567Z,105107.08
2018-04-17T00:03:13.401Z,105096.14
2018-04-17T00:05:41.260Z,105112.57
2018-04-17T00:08:09.033Z,105117.42
2018-04-17T00:10:37.956Z,105117.92
2018-04-17T00:13:05.782Z,105147.16
2018-04-17T00:15:33.673Z,105152.52
2018-04-17T00:18:01.445Z,105179.59
2018-04-17T00:20:29.273Z,105168.52
2018-04-17T00:22:57.061Z,105173.57
2018-04-17T00:25:24.883Z,105194.09
2018-04-17T00:27:52.671Z,105196.78
2018-04-17T00:30:20.483Z,105207.33
2018-04-17T00:32:48.308Z,105218.61
2018-04-17T00:35:16.095Z,105246.96
2018-04-17T00:37:43.964Z,105284.70
2018-04-17T00:40:11.745Z,105292.02
2018-04-17T00:42:39.562Z,105271.78
2018-04-17T00:45:07.396Z,105241.88
2018-04-17T00:47:35.286Z,105188.47
2018-04-17T00:50:03.077Z,105149.88
2018-04-17T00:52:30.909Z,105107.42
2018-04-17T00:54:58.693Z,105083.38
2018-04-17T00:57:26.570Z,105012.90
2018-04-17T00:59:54.337Z,104991.61
2018-04-17T01:02:22.207Z,104968.43
2018-04-17T01:04:50.031Z,104974.26
2018-04-17T01:07:17.847Z,104956.81
2018-04-17T01:09:45.644Z,104881.16
2018-04-17T01:12:13.507Z,104872.11
2018-04-17T01:14:41.287Z,104823.03
2018-04-17T01:17:09.131Z,104774.42
2018-04-17T01:19:36.929Z,104723.41
2018-04-17T01:22:04.763Z,104653.02
2018-04-17T01:24:32.553Z,104595.20
2018-04-17T01:27:00.401Z,104507.95
2018-04-17T01:29:28.173Z,104431.46
2018-04-17T01:31:56.001Z,104337.13
2018-04-17T01:34:23.788Z,104212.06
2018-04-17T01:36:51.618Z,104062.38
2018-04-17T01:39:19.460Z,103992.78
2018-04-17T01:41:47.318Z,103969.56
2018-04-17T01:44:15.163Z,103824.59
2018-04-17T01:46:43.036Z,103731.17
2018-04-17T01:49:10.845Z,103690.95
2018-04-17T01:51:38.759Z,103674.66
2018-04-17T01:54:06.537Z,103673.80
2018-04-17T01:56:34.427Z,103650.86
2018-04-17T01:59:02.269Z,103650.37
2018-04-17T02:01:30.137Z,103658.68
2018-04-17T02:03:57.910Z,103662.11
2018-04-17T02:06:25.728Z,103734.86
2018-04-17T02:08:53.488Z,103692.30
2018-04-17T02:11:21.337Z,103645.77
2018-04-17T02:13:49.135Z,103641.27
2018-04-17T02:16:16.929Z,103616.62
2018-04-17T02:18:44.877Z,103599.84
2018-04-17T02:21:12.655Z,103574.23
2018-04-17T02:23:40.471Z,103536.36
2018-04-17T02:26:08.277Z,127682.19
2018-04-17T02:28:36.183Z,127682.19
2018-04-17T02:31:03.967Z,127682.19
2018-04-17T02:33:31.853Z,127682.19
2018-04-17T02:35:59.639Z,127682.19
2018-04-17T02:38:27.460Z,127682.19
2018-04-17T02:40:55.239Z,127682.19
2018-04-17T02:43:23.088Z,127682.19
2018-04-17T02:45:50.880Z,127682.19
2018-04-17T02:48:18.720Z,127682.19
2018-04-17T02:50:46.556Z,127682.19
2018-04-17T02:53:14.390Z,127682.19
2018-04-17T02:55:42.221Z,127682.19
2018-04-17T02:58:10.081Z,127682.19
2018-04-17T03:00:37.925Z,127682.19
2018-04-17T03:03:05.807Z,127682.19
2018-04-17T03:05:33.606Z,127682.19
2018-04-17T03:08:01.493Z,127682.19
2018-04-17T03:10:29.347Z,127682.19
2018-04-17T03:12:57.210Z,127682.19
2018-04-17T03:15:24.994Z,127682.19
2018-04-17T03:17:52.877Z,127682.19
2018-04-17T03:20:20.665Z,127682.19
2018-04-17T03:22:48.536Z,127682.19
2018-04-17T03:25:16.330Z,127682.19
2018-04-17T03:27:44.211Z,127682.19
2018-04-17T03:30:12.073Z,127682.19
2018-04-17T03:32:40.026Z,127682.19
2018-04-17T03:35:07.869Z,127682.19
2018-04-17T03:37:35.819Z,127682.19
2018-04-17T03:40:03.663Z,127682.19
2018-04-17T03:42:31.578Z,127682.19
2018-04-17T03:44:59.407Z,127682.19
2018-04-17T03:47:27.389Z,127682.19
2018-04-17T03:49:55.227Z,127682.19
2018-04-17T03:52:23.113Z,127682.19
2018-04-17T03:54:50.971Z,127682.19
2018-04-17T03:57:18.845Z,127682.19
2018-04-17T03:59:46.664Z,127682.19
2018-04-17T04:02:14.553Z,127682.19
2018-04-17T04:04:42.374Z,127682.19
2018-04-17T04:07:10.218Z,127682.19
2018-04-17T04:09:38.046Z,127682.19
2018-04-17T04:12:05.900Z,127682.19
2018-04-17T04:14:33.813Z,127682.19
2018-04-17T04:17:13.521Z,127682.19
2018-04-17T04:19:53.293Z,127682.19
2018-04-17T04:22:33.038Z,127682.19
2018-04-17T04:25:12.695Z,127682.19
2018-04-17T04:27:40.625Z,127682.19
2018-04-17T04:30:08.469Z,127682.19
2018-04-17T04:32:36.402Z,127682.19
2018-04-17T04:35:04.325Z,127682.19
2018-04-17T04:37:32.122Z,127682.19
2018-04-17T04:40:00.032Z,127682.19
2018-04-17T04:42:27.925Z,127682.19
2018-04-17T04:44:55.874Z,127682.19
2018-04-17T04:47:23.763Z,127682.19
2018-04-17T04:49:51.678Z,127682.19
2018-04-17T04:52:19.535Z,127682.19
2018-04-17T04:54:47.455Z,127682.19
2018-04-17T04:57:15.293Z,127682.19
2018-04-17T04:59:43.161Z,127682.19
2018-04-17T05:02:10.972Z,127682.19
2018-04-17T05:04:38.868Z,127682.19
2018-04-17T05:07:06.743Z,127682.19
2018-04-17T05:09:34.661Z,127682.19
2018-04-17T05:12:02.533Z,127682.19
2018-04-17T05:14:30.456Z,127682.19
2018-04-17T05:16:58.289Z,127682.19
2018-04-17T05:19:26.217Z,127682.19
2018-04-17T05:21:54.053Z,127682.19
2018-04-17T05:24:21.950Z,127682.19
2018-04-17T05:26:49.829Z,127682.19
2018-04-17T05:29:17.661Z,127682.19
2018-04-17T05:31:45.447Z,127682.19
2018-04-17T05:34:13.401Z,127682.19
2018-04-17T05:36:41.234Z,127682.19
2018-04-17T05:39:09.052Z,127682.19
2018-04-17T05:41:37.055Z,127682.19
2018-04-17T05:44:05.254Z,127682.19
2018-04-17T05:46:33.628Z,127682.19
2018-04-17T05:49:01.936Z,127682.19
2018-04-17T05:51:30.871Z,127682.19
2018-04-17T05:53:59.323Z,127682.19
2018-04-17T05:56:27.859Z,127682.19
2018-04-17T05:58:56.159Z,127682.19
2018-04-17T06:01:25.150Z,127682.19
2018-04-17T06:03:53.498Z,127682.19
2018-04-17T06:06:22.449Z,127682.19
2018-04-17T06:08:50.830Z,127682.19
2018-04-17T06:11:19.569Z,127682.19
2018-04-17T06:13:48.149Z,127682.19
2018-04-17T06:16:16.717Z,127682.19
2018-04-17T06:18:44.566Z,127682.19
2018-04-17T06:21:12.316Z,127682.19
2018-04-17T06:23:40.177Z,127682.19
2018-04-17T06:26:08.000Z,127682.19
2018-04-17T06:28:35.755Z,127682.19
2018-04-17T06:31:03.625Z,127682.19
2018-04-17T06:33:31.394Z,127682.19
2018-04-17T06:35:59.327Z,127682.19
2018-04-17T06:38:27.154Z,127682.19
2018-04-17T06:40:54.996Z,127682.19
2018-04-17T06:43:22.842Z,127682.19
2018-04-17T06:45:50.671Z,127682.19
2018-04-17T06:48:19.177Z,127682.19
2018-04-17T06:50:47.757Z,127682.19
2018-04-17T06:53:16.516Z,127682.19
2018-04-17T06:55:44.710Z,127682.19
2018-04-17T06:58:13.177Z,127682.19
2018-04-17T07:00:41.368Z,127682.19
2018-04-17T07:03:10.907Z,127682.19
2018-04-17T07:05:39.564Z,127682.19
2018-04-17T07:08:07.991Z,127682.19
2018-04-17T07:10:36.368Z,127682.19
2018-04-17T07:13:05.168Z,127682.19
2018-04-17T07:15:33.657Z,127682.19
2018-04-17T07:18:01.475Z,127682.19
2018-04-17T07:20:29.331Z,127682.19
2018-04-17T07:22:57.184Z,127682.19
2018-04-17T07:25:25.042Z,127682.19
2018-04-17T07:27:52.904Z,127682.19
2018-04-17T07:30:20.840Z,127682.19
2018-04-17T07:32:48.662Z,127682.19
2018-04-17T07:35:16.557Z,127682.19
2018-04-17T07:37:44.374Z,127682.19
2018-04-17T07:40:12.201Z,127682.19
2018-04-17T07:42:39.969Z,127682.19
2018-04-17T07:45:07.794Z,127682.19
2018-04-17T07:47:35.590Z,127682.19
2018-04-17T07:50:03.462Z,127682.19
2018-04-17T07:52:31.302Z,127682.19
2018-04-17T07:54:59.197Z,127682.19
2018-04-17T07:57:27.131Z,127682.19
2018-04-17T07:59:55.041Z,127682.19
2018-04-17T08:02:22.856Z,127682.19
2018-04-17T08:04:50.680Z,127682.19
2018-04-17T08:07:18.479Z,127682.19
2018-04-17T08:09:46.313Z,127682.19
2018-04-17T08:12:14.116Z,127682.19
2018-04-17T08:14:42.207Z,127682.19
2018-04-17T08:17:11.347Z,127682.19
2018-04-17T08:19:39.529Z,127682.19
2018-04-17T08:22:07.688Z,127682.19
2018-04-17T08:24:35.997Z,127682.19
2018-04-17T08:27:04.895Z,127682.19
2018-04-17T08:29:32.997Z,127682.19
2018-04-17T08:32:00.819Z,127682.19
2018-04-17T08:34:28.624Z,127682.19
2018-04-17T08:36:56.406Z,127682.19
2018-04-17T08:39:24.230Z,127682.19
2018-04-17T08:41:52.019Z,127682.19
2018-04-17T08:44:19.873Z,127682.19
2018-04-17T08:46:47.698Z,127682.19
2018-04-17T08:49:15.459Z,127682.19
2018-04-17T08:51:43.345Z,127682.19
2018-04-17T08:54:11.173Z,127682.19
2018-04-17T08:56:39.083Z,127682.19
